PN36 weather

Rayne Airport
Home, Pennsylvania, United States

Public forecast

Using degrees Fahrenheit for public forecast. Weather courtesy of forecast.io.

Closest aviation weather report (METAR) to Rayne Airport

Closest report is Indiana County/Jimmy Stewart Fld/ Airport, 6.3 nm (11.7 km) SSW. Retrieved 2020/08/05 16:35 UTC (9 minutes ago):

KIDI 051635Z AUTO 26008G14KT 10SM FEW044 23/12 A3017 RMK A01

Closest aviation forecast (TAF) to Rayne Airport

Closest forecast is John Murtha Johnstown Cambria County Airport, 27.2 nm (50.4 km) SSE. Retrieved 2020/08/05 12:28 UTC (4 hours ago):

TAF KJST 051126Z 0512/0612 23006KT P6SM SCT004 BKN025 TEMPO 0512/0513 1/4SM FG BKN002 FM051500 28008KT P6SM BKN035 FM052300 30005KT P6SM SCT250 FM061100 10005KT P6SM BKN100